Tinton Falls, NJ

01:47 PM EDT on Lulju 29, 2016 (GMT -0400)
Chapin Avenue | | Change Station

Elev 0 ft 40.34 °N, 74.09 °W | Updated 2 minutes ago

Mostly Cloudy
imsahhab hafna
79.2 °F
Feels Like 84 °F
N
0.6
rih varjabbli rih from Grigal
Gusts 2.5 mph

Illum
High -- | Low -- °F
--% Chance of Precip.
Yesterday
High -- | Low -- °F
Precip. -- in
pressjoni 29.85 in
vizibilita 10.0 mili
s imsahhab hafna 1600 ft
indici ta' shana 84 °F
punt ta' nida 79 °F
umdita 100%
Rainfall 0.27 in
Snow Depth Not available.
5:51 AM 8:13 PM
Waning Crescent, 20% visible
SPECI KBLM 291719Z AUTO 36009KT 10SM BKN016 26/21 A2985 RMK AO2
pressjoni 29.85 in
vizibilita 10.0 mili
s imsahhab hafna 1600 ft
indici ta' shana 84 °F
punt ta' nida 79 °F
umdita 100%
Rainfall 0.27 in
Snow Depth Not available.
5:51 AM 8:13 PM
Waning Crescent, 20% visible
SPECI KBLM 291719Z AUTO 36009KT 10SM BKN016 26/21 A2985 RMK AO2

10-Day Weather Forecast

Almanac

Astronomy

Jul. 29, 2016 Rise Set
Actual Time
Civil Twilight
Nautical Twilight
Astronomical Twilight
Moon
Length Of Visible Light
Length of Day
Tomorrow will be .
, % of the Moon is Illuminated

Today's Extremes

State Highs State Lows

Community

WunderPhotos

Upload Photos

1,928,382 photos uploaded!

WunderBlog® & News

Nearby

Air Quality

  Air Quality AQ Index Pollutant
Not available.

Snow Depth

Station Depth Elevation

Earthquake Activity

City Distance Mag. Time & Date
Minimum magnitude displayed is 2.5.

Coastal Water Temperatures

Post temperatura

Stations

Nearby Weather Stations

Station Location Temp kesha tar-rih punt ta' nida umdita rih Precip. Elev aggornat Type
                   

Watches & Warnings

There are currently no watches in effect.